JZA441 CYYZ-CYHZ
Flight info
| Callsign | JZA441 |
|---|---|
| Flight time | 1h 44m |
| Altitude | 35000 |
| Route | DEDKI5 OLABA Q951 TALNO Q929 TOXAL DCT EBONY FUNDY5 |
| Aircraft | CRJ9/M-SDFGIRWY/S |
Departure
| Time | 2026-05-04 20:56 |
|---|---|
| Airport | Toronto Pearson International Airport (CYYZ) |
Arrival
| Time | 2026-05-04 22:40 |
|---|---|
| Airport | Halifax / Stanfield International Airport (CYHZ) |
| Time | Latitude | Longitude | Altitude | Speed | Heading |
|---|---|---|---|---|---|
| 2026-05-04 20:21 | 43.67960 | -79.60726 | 568 ft | 0 kts | 227° |
| 2026-05-04 20:39 | 43.67973 | -79.60706 | 565 ft | 3 kts | 226° |
| 2026-05-04 20:40 | 43.67989 | -79.60685 | 560 ft | 4 kts | 219° |
| 2026-05-04 20:40 | 43.68012 | -79.60666 | 561 ft | 4 kts | 203° |
| 2026-05-04 20:40 | 43.68037 | -79.60657 | 563 ft | 3 kts | 186° |
| 2026-05-04 20:40 | 43.68046 | -79.60656 | 560 ft | 0 kts | 185° |
| 2026-05-04 20:43 | 43.68044 | -79.60656 | 564 ft | 2 kts | 183° |
| 2026-05-04 20:43 | 43.68011 | -79.60646 | 561 ft | 7 kts | 159° |
| 2026-05-04 20:44 | 43.67961 | -79.60591 | 560 ft | 12 kts | 135° |
| 2026-05-04 20:44 | 43.67887 | -79.60496 | 568 ft | 15 kts | 147° |
| 2026-05-04 20:44 | 43.67800 | -79.60527 | 561 ft | 14 kts | 225° |
| 2026-05-04 20:44 | 43.67737 | -79.60617 | 566 ft | 13 kts | 227° |
| 2026-05-04 20:45 | 43.67679 | -79.60704 | 563 ft | 12 kts | 227° |
| 2026-05-04 20:45 | 43.67624 | -79.60788 | 563 ft | 12 kts | 228° |
| 2026-05-04 20:45 | 43.67563 | -79.60882 | 567 ft | 14 kts | 229° |
| 2026-05-04 20:45 | 43.67504 | -79.60992 | 564 ft | 15 kts | 245° |
| 2026-05-04 20:46 | 43.67480 | -79.61136 | 563 ft | 16 kts | 265° |
| 2026-05-04 20:46 | 43.67490 | -79.61293 | 562 ft | 17 kts | 285° |
| 2026-05-04 20:46 | 43.67552 | -79.61440 | 560 ft | 19 kts | 313° |
| 2026-05-04 20:46 | 43.67652 | -79.61571 | 560 ft | 21 kts | 317° |
| 2026-05-04 20:47 | 43.67754 | -79.61712 | 563 ft | 21 kts | 313° |
| 2026-05-04 20:47 | 43.67857 | -79.61853 | 563 ft | 21 kts | 319° |
| 2026-05-04 20:47 | 43.67985 | -79.61951 | 563 ft | 21 kts | 324° |
| 2026-05-04 20:47 | 43.68094 | -79.62089 | 562 ft | 21 kts | 316° |
| 2026-05-04 20:48 | 43.68204 | -79.62230 | 560 ft | 22 kts | 317° |
| 2026-05-04 20:48 | 43.68314 | -79.62372 | 564 ft | 22 kts | 316° |
| 2026-05-04 20:48 | 43.68422 | -79.62514 | 562 ft | 21 kts | 316° |
| 2026-05-04 20:48 | 43.68491 | -79.62618 | 567 ft | 9 kts | 289° |
| 2026-05-04 20:49 | 43.68476 | -79.62695 | 560 ft | 8 kts | 256° |
| 2026-05-04 20:49 | 43.68491 | -79.62763 | 564 ft | 8 kts | 310° |
| 2026-05-04 20:49 | 43.68532 | -79.62817 | 564 ft | 9 kts | 316° |
| 2026-05-04 20:49 | 43.68588 | -79.62891 | 560 ft | 13 kts | 316° |
| 2026-05-04 20:50 | 43.68661 | -79.62987 | 559 ft | 16 kts | 316° |
| 2026-05-04 20:50 | 43.68750 | -79.63103 | 560 ft | 19 kts | 316° |
| 2026-05-04 20:50 | 43.68852 | -79.63238 | 564 ft | 22 kts | 316° |
| 2026-05-04 20:50 | 43.68958 | -79.63375 | 564 ft | 23 kts | 316° |
| 2026-05-04 20:51 | 43.69065 | -79.63514 | 563 ft | 13 kts | 324° |
| 2026-05-04 20:51 | 43.69148 | -79.63486 | 569 ft | 15 kts | 44° |
| 2026-05-04 20:51 | 43.69237 | -79.63424 | 562 ft | 16 kts | 4° |
| 2026-05-04 20:51 | 43.69303 | -79.63421 | 564 ft | 5 kts | 2° |
| 2026-05-04 20:52 | 43.69336 | -79.63421 | 563 ft | 0 kts | 353° |
| 2026-05-04 20:53 | 43.69353 | -79.63425 | 560 ft | 5 kts | 340° |
| 2026-05-04 20:53 | 43.69392 | -79.63463 | 567 ft | 8 kts | 323° |
| 2026-05-04 20:53 | 43.69415 | -79.63507 | 562 ft | 1 kts | 242° |
| 2026-05-04 20:54 | 43.69407 | -79.63519 | 563 ft | 3 kts | 224° |
| 2026-05-04 20:54 | 43.69400 | -79.63529 | 564 ft | 0 kts | 225° |
| 2026-05-04 20:54 | 43.69399 | -79.63531 | 564 ft | 1 kts | 225° |
| 2026-05-04 20:54 | 43.69391 | -79.63541 | 560 ft | 2 kts | 225° |
| 2026-05-04 20:55 | 43.69332 | -79.63625 | 560 ft | 30 kts | 226° |
| 2026-05-04 20:55 | 43.69036 | -79.64053 | 566 ft | 92 kts | 227° |
| 2026-05-04 20:55 | 43.68464 | -79.64870 | 566 ft | 142 kts | 224° |
| 2026-05-04 20:55 | 43.67777 | -79.65962 | 952 ft | 158 kts | 231° |
| 2026-05-04 20:56 | 43.67148 | -79.67323 | 1296 ft | 182 kts | 238° |
| 2026-05-04 20:56 | 43.66500 | -79.68753 | 2221 ft | 171 kts | 234° |
| 2026-05-04 20:56 | 43.65824 | -79.70179 | 2831 ft | 180 kts | 236° |
| 2026-05-04 20:56 | 43.65121 | -79.71647 | 3418 ft | 189 kts | 236° |
| 2026-05-04 20:57 | 43.64375 | -79.73176 | 4178 ft | 189 kts | 236° |
| 2026-05-04 20:57 | 43.63606 | -79.74671 | 4975 ft | 193 kts | 236° |
| 2026-05-04 20:57 | 43.62807 | -79.76165 | 5760 ft | 195 kts | 235° |
| 2026-05-04 20:57 | 43.61985 | -79.77673 | 6473 ft | 198 kts | 235° |
| 2026-05-04 20:58 | 43.61140 | -79.79193 | 7181 ft | 201 kts | 235° |
| 2026-05-04 20:58 | 43.60174 | -79.80568 | 7842 ft | 211 kts | 212° |
| 2026-05-04 20:58 | 43.58676 | -79.80787 | 8508 ft | 234 kts | 171° |
| 2026-05-04 20:58 | 43.57284 | -79.79450 | 9177 ft | 260 kts | 132° |
| 2026-05-04 20:59 | 43.56494 | -79.77156 | 9918 ft | 269 kts | 115° |
| 2026-05-04 20:59 | 43.55799 | -79.74741 | 10534 ft | 276 kts | 120° |
| 2026-05-04 20:59 | 43.54941 | -79.72439 | 10845 ft | 293 kts | 123° |
| 2026-05-04 20:59 | 43.53968 | -79.69881 | 11261 ft | 309 kts | 121° |
| 2026-05-04 21:00 | 43.53009 | -79.67151 | 11772 ft | 321 kts | 120° |
| 2026-05-04 21:00 | 43.52075 | -79.64346 | 12535 ft | 324 kts | 119° |
| 2026-05-04 21:00 | 43.51237 | -79.61787 | 13208 ft | 328 kts | 119° |
| 2026-05-04 21:00 | 43.50361 | -79.58872 | 13857 ft | 335 kts | 108° |
| 2026-05-04 21:01 | 43.50269 | -79.55632 | 14473 ft | 346 kts | 78° |
| 2026-05-04 21:01 | 43.51000 | -79.52465 | 15112 ft | 349 kts | 68° |
| 2026-05-04 21:01 | 43.51880 | -79.49283 | 15400 ft | 366 kts | 69° |
| 2026-05-04 21:01 | 43.52752 | -79.45888 | 15599 ft | 385 kts | 71° |
| 2026-05-04 21:02 | 43.53552 | -79.42295 | 15869 ft | 400 kts | 73° |
| 2026-05-04 21:02 | 43.54319 | -79.38584 | 16458 ft | 405 kts | 73° |
| 2026-05-04 21:02 | 43.55102 | -79.34839 | 17043 ft | 409 kts | 73° |
| 2026-05-04 21:02 | 43.55874 | -79.31264 | 17605 ft | 413 kts | 72° |
| 2026-05-04 21:03 | 43.56659 | -79.27748 | 18117 ft | 416 kts | 71° |
| 2026-05-04 21:03 | 43.57469 | -79.24136 | 18590 ft | 420 kts | 71° |
| 2026-05-04 21:03 | 43.58334 | -79.20273 | 19082 ft | 423 kts | 71° |
| 2026-05-04 21:03 | 43.59205 | -79.16374 | 19570 ft | 427 kts | 71° |
| 2026-05-04 21:04 | 43.60077 | -79.12454 | 20034 ft | 430 kts | 71° |
| 2026-05-04 21:04 | 43.60955 | -79.08497 | 20498 ft | 433 kts | 71° |
| 2026-05-04 21:04 | 43.61839 | -79.04504 | 20961 ft | 436 kts | 70° |
| 2026-05-04 21:04 | 43.62725 | -79.00485 | 21417 ft | 439 kts | 70° |
| 2026-05-04 21:05 | 43.63609 | -78.96491 | 21852 ft | 442 kts | 70° |
| 2026-05-04 21:05 | 43.64463 | -78.92621 | 22247 ft | 445 kts | 70° |
| 2026-05-04 21:05 | 43.65326 | -78.88702 | 22644 ft | 448 kts | 70° |
| 2026-05-04 21:05 | 43.66232 | -78.84573 | 23047 ft | 451 kts | 70° |
| 2026-05-04 21:06 | 43.67143 | -78.80412 | 23422 ft | 454 kts | 70° |
| 2026-05-04 21:06 | 43.68059 | -78.76221 | 23772 ft | 456 kts | 70° |
| 2026-05-04 21:06 | 43.68985 | -78.72018 | 24121 ft | 458 kts | 69° |
| 2026-05-04 21:06 | 43.70101 | -78.67907 | 24458 ft | 457 kts | 63° |
| 2026-05-04 21:07 | 43.71412 | -78.63916 | 24814 ft | 457 kts | 61° |
| 2026-05-04 21:07 | 43.72730 | -78.59979 | 25128 ft | 459 kts | 61° |
| 2026-05-04 21:07 | 43.73912 | -78.56281 | 25410 ft | 461 kts | 63° |
| 2026-05-04 21:07 | 43.75163 | -78.52191 | 25722 ft | 463 kts | 63° |
| 2026-05-04 21:08 | 43.76421 | -78.48078 | 26005 ft | 465 kts | 63° |
| 2026-05-04 21:08 | 43.77682 | -78.43957 | 26295 ft | 466 kts | 63° |
| 2026-05-04 21:08 | 43.78945 | -78.39824 | 26578 ft | 468 kts | 63° |
| 2026-05-04 21:08 | 43.80215 | -78.35657 | 26853 ft | 470 kts | 63° |
| 2026-05-04 21:09 | 43.81409 | -78.31733 | 27103 ft | 471 kts | 63° |
| 2026-05-04 21:09 | 43.82686 | -78.27535 | 27330 ft | 474 kts | 63° |
| 2026-05-04 21:09 | 43.83948 | -78.23382 | 27580 ft | 476 kts | 63° |
| 2026-05-04 21:09 | 43.85088 | -78.19623 | 27796 ft | 477 kts | 63° |
| 2026-05-04 21:10 | 43.86374 | -78.15368 | 28039 ft | 479 kts | 63° |
| 2026-05-04 21:10 | 43.87662 | -78.11107 | 28279 ft | 480 kts | 63° |
| 2026-05-04 21:10 | 43.88955 | -78.06823 | 28516 ft | 482 kts | 63° |
| 2026-05-04 21:10 | 43.90238 | -78.02560 | 29042 ft | 476 kts | 63° |
| 2026-05-04 21:11 | 43.91512 | -77.98333 | 29386 ft | 475 kts | 63° |
| 2026-05-04 21:11 | 43.92779 | -77.94104 | 29708 ft | 473 kts | 63° |
| 2026-05-04 21:11 | 43.94024 | -77.89952 | 30024 ft | 471 kts | 63° |
| 2026-05-04 21:11 | 43.95163 | -77.86144 | 30251 ft | 471 kts | 63° |
| 2026-05-04 21:12 | 43.96417 | -77.81954 | 30501 ft | 470 kts | 63° |
| 2026-05-04 21:12 | 43.97670 | -77.77753 | 30700 ft | 471 kts | 63° |
| 2026-05-04 21:12 | 43.98921 | -77.73556 | 30913 ft | 470 kts | 62° |
| 2026-05-04 21:12 | 44.00168 | -77.69363 | 31147 ft | 469 kts | 62° |
| 2026-05-04 21:13 | 44.01409 | -77.65172 | 31375 ft | 469 kts | 62° |
| 2026-05-04 21:13 | 44.02652 | -77.60981 | 31584 ft | 469 kts | 62° |
| 2026-05-04 21:13 | 44.03887 | -77.56805 | 31855 ft | 467 kts | 62° |
| 2026-05-04 21:13 | 44.05099 | -77.52694 | 32092 ft | 466 kts | 62° |
| 2026-05-04 21:14 | 44.06226 | -77.48880 | 32294 ft | 465 kts | 62° |
| 2026-05-04 21:14 | 44.07392 | -77.44957 | 32502 ft | 464 kts | 62° |
| 2026-05-04 21:14 | 44.08643 | -77.40827 | 32707 ft | 463 kts | 61° |
| 2026-05-04 21:14 | 44.09910 | -77.36770 | 33255 ft | 452 kts | 59° |
| 2026-05-04 21:15 | 44.11214 | -77.32846 | 33777 ft | 443 kts | 58° |
| 2026-05-04 21:15 | 44.12518 | -77.28969 | 33993 ft | 441 kts | 58° |
| 2026-05-04 21:15 | 44.13764 | -77.25215 | 34112 ft | 442 kts | 59° |
| 2026-05-04 21:15 | 44.15039 | -77.21327 | 34295 ft | 442 kts | 59° |
| 2026-05-04 21:16 | 44.16291 | -77.17499 | 34527 ft | 439 kts | 59° |
| 2026-05-04 21:16 | 44.17445 | -77.13987 | 34620 ft | 440 kts | 59° |
| 2026-05-04 21:16 | 44.20001 | -77.06187 | 34717 ft | 445 kts | 59° |
| 2026-05-04 21:17 | 44.22581 | -76.98281 | 34738 ft | 451 kts | 59° |
| 2026-05-04 21:17 | 44.25193 | -76.90262 | 34765 ft | 457 kts | 59° |
| 2026-05-04 21:18 | 44.27388 | -76.83503 | 34746 ft | 463 kts | 59° |
| 2026-05-04 21:18 | 44.30381 | -76.74247 | 34760 ft | 469 kts | 59° |
| 2026-05-04 21:19 | 44.32995 | -76.66159 | 34754 ft | 475 kts | 59° |
| 2026-05-04 21:19 | 44.35712 | -76.57711 | 34759 ft | 480 kts | 60° |
| 2026-05-04 21:20 | 44.37990 | -76.50603 | 34755 ft | 484 kts | 60° |
| 2026-05-04 21:20 | 44.41067 | -76.40985 | 34750 ft | 489 kts | 60° |
| 2026-05-04 21:21 | 44.43847 | -76.32261 | 34748 ft | 492 kts | 60° |
| 2026-05-04 21:21 | 44.46167 | -76.24967 | 34748 ft | 495 kts | 60° |
| 2026-05-04 21:22 | 44.48953 | -76.16137 | 34727 ft | 495 kts | 60° |
| 2026-05-04 21:22 | 44.51635 | -76.07624 | 34727 ft | 495 kts | 60° |
| 2026-05-04 21:23 | 44.54404 | -75.98781 | 34719 ft | 495 kts | 60° |
| 2026-05-04 21:23 | 44.57074 | -75.90238 | 34721 ft | 495 kts | 60° |
| 2026-05-04 21:24 | 44.59835 | -75.81389 | 34704 ft | 495 kts | 60° |
| 2026-05-04 21:24 | 44.62442 | -75.72979 | 34697 ft | 495 kts | 60° |
| 2026-05-04 21:25 | 44.65186 | -75.64115 | 34693 ft | 495 kts | 60° |
| 2026-05-04 21:25 | 44.67706 | -75.55162 | 34695 ft | 498 kts | 63° |
| 2026-05-04 21:26 | 44.70096 | -75.46254 | 34688 ft | 498 kts | 63° |
| 2026-05-04 21:26 | 44.72582 | -75.37179 | 34683 ft | 497 kts | 63° |
| 2026-05-04 21:27 | 44.75146 | -75.28161 | 34689 ft | 495 kts | 61° |
| 2026-05-04 21:27 | 44.77768 | -75.19263 | 34697 ft | 496 kts | 61° |
| 2026-05-04 21:28 | 44.80391 | -75.10300 | 34711 ft | 496 kts | 61° |
| 2026-05-04 21:28 | 44.83011 | -75.01308 | 34725 ft | 496 kts | 61° |
| 2026-05-04 21:29 | 44.85628 | -74.92320 | 34707 ft | 496 kts | 61° |
| 2026-05-04 21:29 | 44.88108 | -74.83744 | 34699 ft | 495 kts | 61° |
| 2026-05-04 21:30 | 44.90691 | -74.74810 | 34698 ft | 495 kts | 61° |
| 2026-05-04 21:30 | 44.93046 | -74.65644 | 34700 ft | 500 kts | 66° |
| 2026-05-04 21:31 | 44.95960 | -74.51483 | 34705 ft | 501 kts | 67° |
| 2026-05-04 21:32 | 44.97988 | -74.42087 | 34703 ft | 500 kts | 66° |
| 2026-05-04 21:32 | 44.99991 | -74.32762 | 34701 ft | 500 kts | 68° |
| 2026-05-04 21:33 | 45.01772 | -74.23234 | 34690 ft | 501 kts | 69° |
| 2026-05-04 21:33 | 45.03442 | -74.14105 | 34698 ft | 501 kts | 69° |
| 2026-05-04 21:34 | 45.05140 | -74.04829 | 34722 ft | 501 kts | 69° |
| 2026-05-04 21:34 | 45.06903 | -73.95293 | 34712 ft | 502 kts | 69° |
| 2026-05-04 21:35 | 45.08095 | -73.85561 | 34705 ft | 510 kts | 79° |
| 2026-05-04 21:35 | 45.08397 | -73.75496 | 34713 ft | 512 kts | 84° |
| 2026-05-04 21:36 | 45.08683 | -73.65439 | 34725 ft | 511 kts | 81° |
| 2026-05-04 21:36 | 45.09088 | -73.55391 | 34729 ft | 512 kts | 82° |
| 2026-05-04 21:37 | 45.09403 | -73.45935 | 34724 ft | 513 kts | 82° |
| 2026-05-04 21:37 | 45.09740 | -73.35923 | 34730 ft | 513 kts | 82° |
| 2026-05-04 21:38 | 45.10073 | -73.25837 | 34737 ft | 513 kts | 82° |
| 2026-05-04 21:38 | 45.10392 | -73.15756 | 34746 ft | 512 kts | 82° |
| 2026-05-04 21:39 | 45.10706 | -73.05684 | 34753 ft | 513 kts | 83° |
| 2026-05-04 21:39 | 45.11005 | -72.95666 | 34754 ft | 513 kts | 83° |
| 2026-05-04 21:40 | 45.11301 | -72.85592 | 34765 ft | 512 kts | 83° |
| 2026-05-04 21:40 | 45.11570 | -72.76105 | 34755 ft | 512 kts | 83° |
| 2026-05-04 21:41 | 45.11852 | -72.66066 | 34755 ft | 511 kts | 83° |
| 2026-05-04 21:41 | 45.12116 | -72.56089 | 34758 ft | 510 kts | 83° |
| 2026-05-04 21:42 | 45.12377 | -72.46049 | 34782 ft | 511 kts | 83° |
| 2026-05-04 21:42 | 45.12627 | -72.36002 | 34765 ft | 510 kts | 83° |
| 2026-05-04 21:43 | 45.12868 | -72.25954 | 34763 ft | 510 kts | 83° |
| 2026-05-04 21:43 | 45.13101 | -72.15919 | 34766 ft | 510 kts | 83° |
| 2026-05-04 21:44 | 45.13317 | -72.06272 | 34763 ft | 510 kts | 83° |
| 2026-05-04 21:44 | 45.13527 | -71.96497 | 34787 ft | 510 kts | 83° |
| 2026-05-04 21:45 | 45.13735 | -71.86441 | 34782 ft | 511 kts | 83° |
| 2026-05-04 21:45 | 45.13933 | -71.76380 | 34776 ft | 511 kts | 84° |
| 2026-05-04 21:46 | 45.14124 | -71.66309 | 34782 ft | 511 kts | 84° |
| 2026-05-04 21:46 | 45.14260 | -71.56301 | 34790 ft | 513 kts | 86° |
| 2026-05-04 21:47 | 45.13960 | -71.46180 | 34790 ft | 515 kts | 90° |
| 2026-05-04 21:47 | 45.13496 | -71.36337 | 34793 ft | 515 kts | 90° |
| 2026-05-04 21:48 | 45.13118 | -71.26496 | 34796 ft | 515 kts | 89° |
| 2026-05-04 21:48 | 45.12735 | -71.16446 | 34793 ft | 515 kts | 89° |
| 2026-05-04 21:49 | 45.12339 | -71.06317 | 34800 ft | 516 kts | 89° |
| 2026-05-04 21:49 | 45.11934 | -70.96179 | 34801 ft | 516 kts | 89° |
| 2026-05-04 21:50 | 45.11523 | -70.86033 | 34790 ft | 516 kts | 89° |
| 2026-05-04 21:50 | 45.11107 | -70.75944 | 34785 ft | 517 kts | 90° |
| 2026-05-04 21:51 | 45.10684 | -70.66094 | 34795 ft | 517 kts | 90° |
| 2026-05-04 21:51 | 45.10257 | -70.56223 | 34780 ft | 517 kts | 90° |
| 2026-05-04 21:52 | 45.09806 | -70.46066 | 34791 ft | 517 kts | 90° |
| 2026-05-04 21:52 | 45.09350 | -70.35892 | 34797 ft | 518 kts | 90° |
| 2026-05-04 21:53 | 45.08876 | -70.25716 | 34774 ft | 519 kts | 90° |
| 2026-05-04 21:53 | 45.08408 | -70.15600 | 34790 ft | 519 kts | 90° |
| 2026-05-04 21:54 | 45.07916 | -70.05406 | 34790 ft | 519 kts | 90° |
| 2026-05-04 21:54 | 45.07437 | -69.95496 | 34781 ft | 520 kts | 90° |
| 2026-05-04 21:55 | 45.06941 | -69.85562 | 34781 ft | 520 kts | 91° |
| 2026-05-04 21:55 | 45.06427 | -69.75366 | 34779 ft | 519 kts | 91° |
| 2026-05-04 21:56 | 45.05911 | -69.65330 | 34778 ft | 510 kts | 91° |
| 2026-05-04 21:56 | 45.05392 | -69.55413 | 34769 ft | 502 kts | 91° |
| 2026-05-04 21:57 | 45.04877 | -69.45646 | 34754 ft | 494 kts | 91° |
| 2026-05-04 21:57 | 45.04294 | -69.36031 | 34757 ft | 489 kts | 97° |
| 2026-05-04 21:58 | 45.02714 | -69.26978 | 34770 ft | 489 kts | 104° |
| 2026-05-04 21:58 | 45.00973 | -69.18182 | 34769 ft | 489 kts | 104° |
| 2026-05-04 21:59 | 44.99120 | -69.08925 | 34766 ft | 490 kts | 104° |
| 2026-05-04 21:59 | 44.97263 | -68.99669 | 34774 ft | 490 kts | 104° |
| 2026-05-04 22:00 | 44.95405 | -68.90397 | 34766 ft | 490 kts | 105° |
| 2026-05-04 22:00 | 44.93598 | -68.81151 | 34770 ft | 487 kts | 104° |
| 2026-05-04 22:01 | 44.91817 | -68.71970 | 34766 ft | 484 kts | 104° |
| 2026-05-04 22:01 | 44.90928 | -68.62712 | 34788 ft | 480 kts | 91° |
| 2026-05-04 22:02 | 44.90848 | -68.53702 | 34817 ft | 480 kts | 86° |
| 2026-05-04 22:02 | 44.91026 | -68.44219 | 34839 ft | 487 kts | 88° |
| 2026-05-04 22:03 | 44.90993 | -68.34583 | 34837 ft | 495 kts | 89° |
| 2026-05-04 22:03 | 44.90988 | -68.24863 | 34805 ft | 502 kts | 89° |
| 2026-05-04 22:04 | 44.90968 | -68.14958 | 34780 ft | 507 kts | 89° |
| 2026-05-04 22:04 | 44.90934 | -68.05003 | 34785 ft | 508 kts | 89° |
| 2026-05-04 22:05 | 44.90897 | -67.95030 | 34798 ft | 509 kts | 90° |
| 2026-05-04 22:05 | 44.90851 | -67.85224 | 34784 ft | 510 kts | 90° |
| 2026-05-04 22:06 | 44.90801 | -67.75500 | 34787 ft | 510 kts | 90° |
| 2026-05-04 22:06 | 44.90735 | -67.65498 | 34806 ft | 510 kts | 90° |
| 2026-05-04 22:07 | 44.90664 | -67.55478 | 34809 ft | 511 kts | 90° |
| 2026-05-04 22:07 | 44.90583 | -67.45437 | 34822 ft | 512 kts | 90° |
| 2026-05-04 22:08 | 44.90492 | -67.35386 | 34794 ft | 513 kts | 90° |
| 2026-05-04 22:08 | 44.90391 | -67.25402 | 34776 ft | 513 kts | 91° |
| 2026-05-04 22:09 | 44.90300 | -67.15469 | 34777 ft | 512 kts | 90° |
| 2026-05-04 22:09 | 44.90240 | -67.05748 | 34783 ft | 512 kts | 90° |
| 2026-05-04 22:10 | 44.90217 | -66.95704 | 34784 ft | 512 kts | 90° |
| 2026-05-04 22:10 | 44.90214 | -66.85670 | 34776 ft | 511 kts | 90° |
| 2026-05-04 22:11 | 44.90172 | -66.75711 | 34769 ft | 511 kts | 91° |
| 2026-05-04 22:11 | 44.90128 | -66.65677 | 34772 ft | 512 kts | 91° |
| 2026-05-04 22:12 | 44.90084 | -66.55619 | 34771 ft | 514 kts | 91° |
| 2026-05-04 22:12 | 44.90024 | -66.45527 | 34801 ft | 515 kts | 91° |
| 2026-05-04 22:13 | 44.89962 | -66.35856 | 34783 ft | 518 kts | 91° |
| 2026-05-04 22:13 | 44.89886 | -66.25683 | 34776 ft | 519 kts | 91° |
| 2026-05-04 22:14 | 44.89800 | -66.15490 | 34783 ft | 521 kts | 91° |
| 2026-05-04 22:14 | 44.89706 | -66.05268 | 34780 ft | 522 kts | 91° |
| 2026-05-04 22:15 | 44.89602 | -65.95020 | 34793 ft | 522 kts | 91° |
| 2026-05-04 22:15 | 44.89548 | -65.89900 | 34555 ft | 524 kts | 91° |
| 2026-05-04 22:15 | 44.89490 | -65.84835 | 34382 ft | 524 kts | 91° |
| 2026-05-04 22:15 | 44.89431 | -65.79697 | 34230 ft | 524 kts | 91° |
| 2026-05-04 22:16 | 44.89369 | -65.74670 | 34084 ft | 523 kts | 91° |
| 2026-05-04 22:16 | 44.89310 | -65.69881 | 33930 ft | 523 kts | 91° |
| 2026-05-04 22:16 | 44.89243 | -65.64755 | 33737 ft | 521 kts | 91° |
| 2026-05-04 22:16 | 44.89175 | -65.59644 | 33389 ft | 522 kts | 91° |
| 2026-05-04 22:17 | 44.89102 | -65.54524 | 33042 ft | 521 kts | 91° |
| 2026-05-04 22:17 | 44.89029 | -65.49437 | 32645 ft | 519 kts | 91° |
| 2026-05-04 22:17 | 44.88955 | -65.44410 | 32212 ft | 519 kts | 91° |
| 2026-05-04 22:17 | 44.88880 | -65.39324 | 31678 ft | 520 kts | 91° |
| 2026-05-04 22:18 | 44.88801 | -65.34224 | 31133 ft | 520 kts | 91° |
| 2026-05-04 22:18 | 44.88719 | -65.29172 | 30552 ft | 511 kts | 91° |
| 2026-05-04 22:18 | 44.88638 | -65.24211 | 29951 ft | 502 kts | 91° |
| 2026-05-04 22:18 | 44.88557 | -65.19311 | 29265 ft | 497 kts | 91° |
| 2026-05-04 22:19 | 44.88471 | -65.14466 | 28578 ft | 494 kts | 91° |
| 2026-05-04 22:19 | 44.88383 | -65.09644 | 27914 ft | 490 kts | 91° |
| 2026-05-04 22:19 | 44.88296 | -65.04854 | 27268 ft | 487 kts | 91° |
| 2026-05-04 22:19 | 44.88214 | -65.00501 | 26678 ft | 483 kts | 91° |
| 2026-05-04 22:20 | 44.88126 | -64.95862 | 26065 ft | 477 kts | 91° |
| 2026-05-04 22:20 | 44.88037 | -64.91217 | 25448 ft | 470 kts | 91° |
| 2026-05-04 22:20 | 44.87946 | -64.86640 | 24847 ft | 464 kts | 91° |
| 2026-05-04 22:20 | 44.87856 | -64.82118 | 24242 ft | 459 kts | 92° |
| 2026-05-04 22:21 | 44.87770 | -64.77867 | 23694 ft | 454 kts | 92° |
| 2026-05-04 22:21 | 44.87673 | -64.73450 | 23168 ft | 448 kts | 92° |
| 2026-05-04 22:21 | 44.87575 | -64.69100 | 22657 ft | 440 kts | 92° |
| 2026-05-04 22:21 | 44.87481 | -64.64824 | 22141 ft | 434 kts | 92° |
| 2026-05-04 22:22 | 44.87388 | -64.60595 | 21639 ft | 428 kts | 92° |
| 2026-05-04 22:22 | 44.87297 | -64.56486 | 21168 ft | 423 kts | 92° |
| 2026-05-04 22:22 | 44.87200 | -64.52358 | 20686 ft | 419 kts | 92° |
| 2026-05-04 22:22 | 44.87112 | -64.48635 | 20270 ft | 415 kts | 93° |
| 2026-05-04 22:23 | 44.87019 | -64.44594 | 19824 ft | 411 kts | 93° |
| 2026-05-04 22:23 | 44.86923 | -64.40588 | 19358 ft | 407 kts | 94° |
| 2026-05-04 22:23 | 44.86823 | -64.36612 | 18913 ft | 404 kts | 94° |
| 2026-05-04 22:23 | 44.86717 | -64.32676 | 18472 ft | 400 kts | 94° |
| 2026-05-04 22:24 | 44.86616 | -64.28767 | 18035 ft | 397 kts | 94° |
| 2026-05-04 22:24 | 44.86516 | -64.24895 | 17544 ft | 395 kts | 94° |
| 2026-05-04 22:24 | 44.86417 | -64.21036 | 17055 ft | 392 kts | 94° |
| 2026-05-04 22:24 | 44.86618 | -64.17269 | 16576 ft | 391 kts | 79° |
| 2026-05-04 22:25 | 44.87194 | -64.13879 | 16147 ft | 386 kts | 73° |
| 2026-05-04 22:25 | 44.87905 | -64.10274 | 15685 ft | 379 kts | 73° |
| 2026-05-04 22:25 | 44.88584 | -64.06697 | 15152 ft | 375 kts | 75° |
| 2026-05-04 22:25 | 44.89174 | -64.03139 | 14629 ft | 371 kts | 77° |
| 2026-05-04 22:26 | 44.89707 | -63.99608 | 14080 ft | 366 kts | 77° |
| 2026-05-04 22:26 | 44.90364 | -63.96176 | 13547 ft | 359 kts | 62° |
| 2026-05-04 22:26 | 44.91806 | -63.93404 | 13047 ft | 345 kts | 34° |
| 2026-05-04 22:26 | 44.93717 | -63.91455 | 12672 ft | 336 kts | 26° |
| 2026-05-04 22:27 | 44.95665 | -63.89669 | 12321 ft | 330 kts | 25° |
| 2026-05-04 22:27 | 44.97578 | -63.87964 | 11918 ft | 321 kts | 24° |
| 2026-05-04 22:27 | 44.99425 | -63.86338 | 11530 ft | 314 kts | 24° |
| 2026-05-04 22:27 | 45.01260 | -63.84729 | 11133 ft | 307 kts | 24° |
| 2026-05-04 22:28 | 45.03061 | -63.83146 | 10736 ft | 302 kts | 24° |
| 2026-05-04 22:28 | 45.04830 | -63.81587 | 10353 ft | 298 kts | 24° |
| 2026-05-04 22:28 | 45.06418 | -63.80182 | 10014 ft | 294 kts | 23° |
| 2026-05-04 22:28 | 45.08035 | -63.78752 | 9724 ft | 288 kts | 23° |
| 2026-05-04 22:29 | 45.09708 | -63.77256 | 9445 ft | 280 kts | 23° |
| 2026-05-04 22:29 | 45.11327 | -63.75794 | 9194 ft | 273 kts | 24° |
| 2026-05-04 22:29 | 45.12915 | -63.74358 | 8921 ft | 269 kts | 24° |
| 2026-05-04 22:29 | 45.14366 | -63.72662 | 8600 ft | 279 kts | 49° |
| 2026-05-04 22:30 | 45.15095 | -63.70122 | 8290 ft | 283 kts | 84° |
| 2026-05-04 22:30 | 45.15160 | -63.67369 | 8040 ft | 285 kts | 91° |
| 2026-05-04 22:30 | 45.15151 | -63.64545 | 7789 ft | 289 kts | 92° |
| 2026-05-04 22:30 | 45.15118 | -63.61682 | 7537 ft | 292 kts | 93° |
| 2026-05-04 22:31 | 45.15072 | -63.58801 | 7282 ft | 294 kts | 94° |
| 2026-05-04 22:31 | 45.15022 | -63.55913 | 7040 ft | 292 kts | 94° |
| 2026-05-04 22:31 | 45.14974 | -63.53071 | 6770 ft | 286 kts | 94° |
| 2026-05-04 22:31 | 45.14929 | -63.50280 | 6528 ft | 281 kts | 94° |
| 2026-05-04 22:32 | 45.14879 | -63.47535 | 6260 ft | 276 kts | 98° |
| 2026-05-04 22:32 | 45.14409 | -63.45227 | 6011 ft | 263 kts | 122° |
| 2026-05-04 22:32 | 45.13651 | -63.42944 | 5744 ft | 258 kts | 122° |
| 2026-05-04 22:32 | 45.12883 | -63.40670 | 5479 ft | 255 kts | 123° |
| 2026-05-04 22:33 | 45.12115 | -63.38424 | 5223 ft | 251 kts | 123° |
| 2026-05-04 22:33 | 45.11342 | -63.36229 | 4950 ft | 245 kts | 129° |
| 2026-05-04 22:33 | 45.10167 | -63.34718 | 4639 ft | 217 kts | 170° |
| 2026-05-04 22:33 | 45.08758 | -63.34300 | 4388 ft | 204 kts | 181° |
| 2026-05-04 22:34 | 45.07372 | -63.34020 | 4172 ft | 196 kts | 182° |
| 2026-05-04 22:34 | 45.06163 | -63.33921 | 3963 ft | 172 kts | 199° |
| 2026-05-04 22:34 | 45.05169 | -63.34660 | 3700 ft | 160 kts | 220° |
| 2026-05-04 22:34 | 45.04231 | -63.35494 | 3526 ft | 160 kts | 219° |
| 2026-05-04 22:35 | 45.03291 | -63.36338 | 3443 ft | 159 kts | 219° |
| 2026-05-04 22:35 | 45.02382 | -63.37177 | 3393 ft | 157 kts | 220° |
| 2026-05-04 22:35 | 45.01476 | -63.38030 | 3395 ft | 157 kts | 222° |
| 2026-05-04 22:35 | 45.00560 | -63.38896 | 3306 ft | 164 kts | 223° |
| 2026-05-04 22:36 | 44.99607 | -63.39823 | 3051 ft | 164 kts | 223° |
| 2026-05-04 22:36 | 44.98694 | -63.40717 | 2833 ft | 156 kts | 223° |
| 2026-05-04 22:36 | 44.97822 | -63.41576 | 2651 ft | 152 kts | 223° |
| 2026-05-04 22:36 | 44.96945 | -63.42458 | 2457 ft | 158 kts | 222° |
| 2026-05-04 22:37 | 44.96038 | -63.43351 | 2228 ft | 157 kts | 222° |
| 2026-05-04 22:37 | 44.95165 | -63.44208 | 2015 ft | 149 kts | 222° |
| 2026-05-04 22:37 | 44.94341 | -63.45032 | 1818 ft | 142 kts | 221° |
| 2026-05-04 22:37 | 44.93607 | -63.45765 | 1650 ft | 136 kts | 221° |
| 2026-05-04 22:38 | 44.92867 | -63.46481 | 1464 ft | 134 kts | 221° |
| 2026-05-04 22:38 | 44.92111 | -63.47240 | 1255 ft | 130 kts | 220° |
| 2026-05-04 22:38 | 44.91378 | -63.47989 | 1031 ft | 134 kts | 220° |
| 2026-05-04 22:38 | 44.90584 | -63.48774 | 882 ft | 141 kts | 217° |
| 2026-05-04 22:39 | 44.89776 | -63.49530 | 675 ft | 135 kts | 223° |
| 2026-05-04 22:39 | 44.89012 | -63.50304 | 523 ft | 139 kts | 219° |
| 2026-05-04 22:39 | 44.88283 | -63.51019 | 448 ft | 110 kts | 219° |
| 2026-05-04 22:39 | 44.87813 | -63.51493 | 450 ft | 66 kts | 215° |
| 2026-05-04 22:40 | 44.87533 | -63.51769 | 447 ft | 30 kts | 216° |
| 2026-05-04 22:40 | 44.87451 | -63.51934 | 447 ft | 18 kts | 254° |
| 2026-05-04 22:40 | 44.87453 | -63.52052 | 450 ft | 10 kts | 298° |
| 2026-05-04 22:40 | 44.87476 | -63.52102 | 450 ft | 4 kts | 320° |
| 2026-05-04 22:41 | 44.87510 | -63.52113 | 450 ft | 7 kts | 11° |
| 2026-05-04 22:41 | 44.87563 | -63.52068 | 450 ft | 11 kts | 33° |
| 2026-05-04 22:41 | 44.87642 | -63.51994 | 450 ft | 16 kts | 34° |
| 2026-05-04 22:41 | 44.87747 | -63.51891 | 450 ft | 20 kts | 36° |
| 2026-05-04 22:42 | 44.87866 | -63.51772 | 450 ft | 21 kts | 35° |
| 2026-05-04 22:42 | 44.87988 | -63.51650 | 450 ft | 22 kts | 34° |
| 2026-05-04 22:42 | 44.88118 | -63.51525 | 450 ft | 23 kts | 35° |
| 2026-05-04 22:42 | 44.88250 | -63.51393 | 450 ft | 24 kts | 34° |
| 2026-05-04 22:43 | 44.88339 | -63.51303 | 450 ft | 11 kts | 39° |
| 2026-05-04 22:43 | 44.88404 | -63.51231 | 450 ft | 12 kts | 31° |
| 2026-05-04 22:43 | 44.88491 | -63.51213 | 450 ft | 13 kts | 353° |
| 2026-05-04 22:43 | 44.88548 | -63.51251 | 450 ft | 6 kts | 287° |
| 2026-05-04 22:44 | 44.88551 | -63.51297 | 450 ft | 4 kts | 272° |
| 2026-05-04 22:44 | 44.88550 | -63.51332 | 450 ft | 2 kts | 269° |
| 2026-05-04 22:44 | 44.88550 | -63.51344 | 450 ft | 0 kts | 270° |